sensor_id;sensor_type;location;lat;lon;timestamp;pressure;altitude;pressure_sealevel;temperature;humidity
72585;BME280;60618;40.084;32.908;2022-10-22T00:01:44;90432.06;;;3.90;65.34
72585;BME280;60618;40.084;32.908;2022-10-22T00:04:11;90424.50;;;3.92;65.42
72585;BME280;60618;40.084;32.908;2022-10-22T00:06:38;90420.19;;;3.82;66.05
72585;BME280;60618;40.084;32.908;2022-10-22T00:09:05;90411.13;;;3.83;65.81
72585;BME280;60618;40.084;32.908;2022-10-22T00:11:32;90415.44;;;3.93;65.95
72585;BME280;60618;40.084;32.908;2022-10-22T00:13:58;90414.91;;;3.82;66.17
72585;BME280;60618;40.084;32.908;2022-10-22T00:16:25;90407.22;;;3.71;66.88
72585;BME280;60618;40.084;32.908;2022-10-22T00:18:52;90409.25;;;3.63;67.08
72585;BME280;60618;40.084;32.908;2022-10-22T00:21:19;90406.47;;;3.70;67.17
72585;BME280;60618;40.084;32.908;2022-10-22T00:23:45;90400.88;;;3.68;66.90
72585;BME280;60618;40.084;32.908;2022-10-22T00:26:12;90409.09;;;3.70;67.07
72585;BME280;60618;40.084;32.908;2022-10-22T00:28:39;90416.81;;;3.61;67.38
72585;BME280;60618;40.084;32.908;2022-10-22T00:31:06;90418.50;;;3.52;67.92
72585;BME280;60618;40.084;32.908;2022-10-22T00:33:33;90401.47;;;3.56;67.92
72585;BME280;60618;40.084;32.908;2022-10-22T00:36:00;90407.97;;;3.52;68.21
72585;BME280;60618;40.084;32.908;2022-10-22T00:38:27;90416.19;;;3.54;68.17
72585;BME280;60618;40.084;32.908;2022-10-22T00:40:54;90418.41;;;3.55;68.01
72585;BME280;60618;40.084;32.908;2022-10-22T00:43:21;90401.47;;;3.56;68.36
72585;BME280;60618;40.084;32.908;2022-10-22T00:45:48;90422.50;;;3.60;68.26
72585;BME280;60618;40.084;32.908;2022-10-22T00:48:22;90406.00;;;3.56;68.49
72585;BME280;60618;40.084;32.908;2022-10-22T00:50:53;90413.28;;;3.48;68.32
72585;BME280;60618;40.084;32.908;2022-10-22T00:53:46;90410.84;;;3.57;68.00
72585;BME280;60618;40.084;32.908;2022-10-22T00:56:14;90410.84;;;3.57;68.31
72585;BME280;60618;40.084;32.908;2022-10-22T00:58:45;90396.75;;;3.48;68.86
72585;BME280;60618;40.084;32.908;2022-10-22T01:01:16;90390.06;;;3.43;68.60
72585;BME280;60618;40.084;32.908;2022-10-22T01:03:44;90394.50;;;3.46;69.13
72585;BME280;60618;40.084;32.908;2022-10-22T01:06:15;90384.06;;;3.42;69.54
72585;BME280;60618;40.084;32.908;2022-10-22T01:23:04;90388.22;;;3.40;69.49
72585;BME280;60618;40.084;32.908;2022-10-22T01:28:56;90392.28;;;3.45;69.05
72585;BME280;60618;40.084;32.908;2022-10-22T01:31:29;90400.59;;;3.43;69.54
72585;BME280;60618;40.084;32.908;2022-10-22T01:33:58;90386.75;;;3.39;69.32
72585;BME280;60618;40.084;32.908;2022-10-22T01:36:30;90392.50;;;3.34;69.48
72585;BME280;60618;40.084;32.908;2022-10-22T01:38:59;90389.88;;;3.34;69.61
72585;BME280;60618;40.084;32.908;2022-10-22T01:41:28;90385.59;;;3.40;69.13
72585;BME280;60618;40.084;32.908;2022-10-22T01:43:55;90389.38;;;3.39;69.31
72585;BME280;60618;40.084;32.908;2022-10-22T01:46:24;90378.22;;;3.31;69.48
72585;BME280;60618;40.084;32.908;2022-10-22T01:52:06;90388.34;;;3.13;70.20
72585;BME280;60618;40.084;32.908;2022-10-22T02:00:19;90400.53;;;3.03;70.75
72585;BME280;60618;40.084;32.908;2022-10-22T02:05:29;90395.00;;;2.98;71.43
72585;BME280;60618;40.084;32.908;2022-10-22T02:08:22;90398.59;;;3.07;71.11
72585;BME280;60618;40.084;32.908;2022-10-22T02:10:51;90391.22;;;2.99;71.44
72585;BME280;60618;40.084;32.908;2022-10-22T02:13:24;90382.13;;;3.03;71.58
72585;BME280;60618;40.084;32.908;2022-10-22T02:15:52;90386.38;;;2.97;72.01
72585;BME280;60618;40.084;32.908;2022-10-22T02:18:24;90393.56;;;2.93;71.77
72585;BME280;60618;40.084;32.908;2022-10-22T02:20:53;90407.94;;;2.89;72.15
72585;BME280;60618;40.084;32.908;2022-10-22T02:23:20;90398.56;;;2.88;72.52
72585;BME280;60618;40.084;32.908;2022-10-22T02:25:52;90408.38;;;2.83;72.83
72585;BME280;60618;40.084;32.908;2022-10-22T02:28:25;90409.09;;;2.88;72.67
72585;BME280;60618;40.084;32.908;2022-10-22T02:31:02;90401.56;;;2.86;72.90
72585;BME280;60618;40.084;32.908;2022-10-22T02:33:36;90413.47;;;2.94;72.42
72585;BME280;60618;40.084;32.908;2022-10-22T02:36:06;90412.06;;;2.90;72.30
72585;BME280;60618;40.084;32.908;2022-10-22T02:38:34;90420.22;;;2.95;72.45
72585;BME280;60618;40.084;32.908;2022-10-22T02:41:02;90409.44;;;2.90;72.68
72585;BME280;60618;40.084;32.908;2022-10-22T02:43:29;90395.53;;;2.89;72.87
72585;BME280;60618;40.084;32.908;2022-10-22T02:45:56;90417.09;;;2.80;73.00
72585;BME280;60618;40.084;32.908;2022-10-22T02:48:23;90420.28;;;2.92;72.88
72585;BME280;60618;40.084;32.908;2022-10-22T02:50:50;90419.03;;;3.00;72.49
72585;BME280;60618;40.084;32.908;2022-10-22T02:53:16;90425.09;;;2.97;72.89
72585;BME280;60618;40.084;32.908;2022-10-22T02:55:43;90416.91;;;2.91;72.93
72585;BME280;60618;40.084;32.908;2022-10-22T02:58:10;90427.72;;;2.97;72.75
72585;BME280;60618;40.084;32.908;2022-10-22T03:00:37;90428.47;;;2.97;73.09
72585;BME280;60618;40.084;32.908;2022-10-22T03:03:04;90415.75;;;2.92;73.05
72585;BME280;60618;40.084;32.908;2022-10-22T03:05:30;90427.44;;;2.91;73.16
72585;BME280;60618;40.084;32.908;2022-10-22T03:07:57;90424.81;;;2.91;73.18
72585;BME280;60618;40.084;32.908;2022-10-22T03:10:24;90420.69;;;2.90;73.11
72585;BME280;60618;40.084;32.908;2022-10-22T03:12:52;90430.69;;;2.99;73.14
72585;BME280;60618;40.084;32.908;2022-10-22T03:15:19;90426.59;;;2.98;73.28
72585;BME280;60618;40.084;32.908;2022-10-22T03:17:46;90427.31;;;2.98;73.19
72585;BME280;60618;40.084;32.908;2022-10-22T03:20:13;90437.44;;;3.00;73.22
72585;BME280;60618;40.084;32.908;2022-10-22T03:22:41;90427.78;;;2.93;73.23
72585;BME280;60618;40.084;32.908;2022-10-22T03:25:18;90437.16;;;2.94;73.26
72585;BME280;60618;40.084;32.908;2022-10-22T03:27:46;90443.28;;;2.88;73.37
72585;BME280;60618;40.084;32.908;2022-10-22T03:30:14;90429.75;;;2.85;74.10
72585;BME280;60618;40.084;32.908;2022-10-22T03:32:40;90443.66;;;2.86;73.41
72585;BME280;60618;40.084;32.908;2022-10-22T03:35:07;90445.84;;;2.91;73.68
72585;BME280;60618;40.084;32.908;2022-10-22T03:37:35;90451.78;;;2.95;73.00
72585;BME280;60618;40.084;32.908;2022-10-22T03:40:04;90441.84;;;2.83;73.90
72585;BME280;60618;40.084;32.908;2022-10-22T03:42:31;90446.13;;;2.73;73.76
72585;BME280;60618;40.084;32.908;2022-10-22T03:44:58;90443.31;;;2.84;73.72
72585;BME280;60618;40.084;32.908;2022-10-22T03:47:25;90446.03;;;2.80;73.86
72585;BME280;60618;40.084;32.908;2022-10-22T03:49:52;90453.50;;;2.82;73.45
72585;BME280;60618;40.084;32.908;2022-10-22T03:52:19;90446.28;;;2.86;73.03
72585;BME280;60618;40.084;32.908;2022-10-22T03:54:45;90442.59;;;2.83;73.49
72585;BME280;60618;40.084;32.908;2022-10-22T03:57:12;90447.53;;;2.78;73.56
72585;BME280;60618;40.084;32.908;2022-10-22T03:59:42;90447.19;;;2.76;73.79
72585;BME280;60618;40.084;32.908;2022-10-22T04:02:11;90457.81;;;2.69;74.19
72585;BME280;60618;40.084;32.908;2022-10-22T04:04:40;90459.63;;;2.75;73.97
72585;BME280;60618;40.084;32.908;2022-10-22T04:07:07;90457.56;;;2.63;74.65
72585;BME280;60618;40.084;32.908;2022-10-22T04:09:37;90451.25;;;2.57;74.94
72585;BME280;60618;40.084;32.908;2022-10-22T04:12:05;90457.34;;;2.50;74.72
72585;BME280;60618;40.084;32.908;2022-10-22T04:14:32;90463.25;;;2.58;75.02
72585;BME280;60618;40.084;32.908;2022-10-22T04:16:58;90460.38;;;2.99;73.92
72585;BME280;60618;40.084;32.908;2022-10-22T04:19:25;90456.84;;;3.53;72.08
72585;BME280;60618;40.084;32.908;2022-10-22T04:21:59;90452.84;;;4.04;70.78
72585;BME280;60618;40.084;32.908;2022-10-22T04:24:30;90466.31;;;4.46;68.22
72585;BME280;60618;40.084;32.908;2022-10-22T04:26:57;90456.63;;;4.59;67.17
72585;BME280;60618;40.084;32.908;2022-10-22T04:29:24;90463.06;;;4.91;66.76
72585;BME280;60618;40.084;32.908;2022-10-22T04:31:51;90465.72;;;5.23;66.43
72585;BME280;60618;40.084;32.908;2022-10-22T04:34:18;90464.09;;;5.58;65.63
72585;BME280;60618;40.084;32.908;2022-10-22T04:36:45;90469.75;;;5.73;63.77
72585;BME280;60618;40.084;32.908;2022-10-22T04:39:15;90471.16;;;5.94;63.21
72585;BME280;60618;40.084;32.908;2022-10-22T04:41:41;90481.88;;;6.16;61.73
72585;BME280;60618;40.084;32.908;2022-10-22T04:44:08;90484.03;;;6.21;61.43
72585;BME280;60618;40.084;32.908;2022-10-22T04:46:42;90497.28;;;6.34;61.30
72585;BME280;60618;40.084;32.908;2022-10-22T04:49:09;90495.50;;;6.43;61.08
72585;BME280;60618;40.084;32.908;2022-10-22T04:51:36;90488.59;;;6.46;60.64
72585;BME280;60618;40.084;32.908;2022-10-22T04:54:05;90493.13;;;5.91;60.65
72585;BME280;60618;40.084;32.908;2022-10-22T04:56:32;90499.63;;;5.41;63.14
72585;BME280;60618;40.084;32.908;2022-10-22T04:59:01;90515.13;;;4.90;64.47
72585;BME280;60618;40.084;32.908;2022-10-22T05:01:30;90514.84;;;4.84;65.35
72585;BME280;60618;40.084;32.908;2022-10-22T05:04:01;90515.03;;;4.94;65.12
72585;BME280;60618;40.084;32.908;2022-10-22T05:06:29;90518.03;;;4.96;64.89
72585;BME280;60618;40.084;32.908;2022-10-22T05:09:02;90515.22;;;4.87;66.05
72585;BME280;60618;40.084;32.908;2022-10-22T05:11:34;90518.69;;;5.00;65.27
72585;BME280;60618;40.084;32.908;2022-10-22T05:14:03;90513.41;;;5.00;64.82
72585;BME280;60618;40.084;32.908;2022-10-22T05:16:31;90514.00;;;5.07;64.71
72585;BME280;60618;40.084;32.908;2022-10-22T05:19:00;90525.69;;;5.06;64.79
72585;BME280;60618;40.084;32.908;2022-10-22T05:21:27;90522.94;;;4.94;64.79
72585;BME280;60618;40.084;32.908;2022-10-22T05:23:55;90519.34;;;5.20;64.62
72585;BME280;60618;40.084;32.908;2022-10-22T05:26:22;90516.78;;;5.17;63.95
72585;BME280;60618;40.084;32.908;2022-10-22T05:28:50;90530.16;;;5.09;65.18
72585;BME280;60618;40.084;32.908;2022-10-22T05:31:17;90528.94;;;5.30;64.06
72585;BME280;60618;40.084;32.908;2022-10-22T05:33:44;90530.06;;;5.29;65.59
72585;BME280;60618;40.084;32.908;2022-10-22T05:36:23;90531.50;;;5.34;63.68
72585;BME280;60618;40.084;32.908;2022-10-22T05:38:50;90525.03;;;5.51;64.82
72585;BME280;60618;40.084;32.908;2022-10-22T05:41:20;90534.66;;;5.90;62.28
72585;BME280;60618;40.084;32.908;2022-10-22T05:43:47;90527.28;;;6.14;61.53
72585;BME280;60618;40.084;32.908;2022-10-22T05:46:16;90529.31;;;5.94;61.38
72585;BME280;60618;40.084;32.908;2022-10-22T05:48:50;90537.66;;;5.60;62.65
72585;BME280;60618;40.084;32.908;2022-10-22T05:51:17;90539.66;;;5.39;63.51
72585;BME280;60618;40.084;32.908;2022-10-22T05:53:45;90537.25;;;5.45;63.33
72585;BME280;60618;40.084;32.908;2022-10-22T05:56:14;90543.75;;;5.57;63.17
72585;BME280;60618;40.084;32.908;2022-10-22T05:58:42;90537.56;;;5.63;63.61
72585;BME280;60618;40.084;32.908;2022-10-22T06:01:24;90540.31;;;5.44;64.45
72585;BME280;60618;40.084;32.908;2022-10-22T06:03:56;90552.72;;;5.30;64.66
72585;BME280;60618;40.084;32.908;2022-10-22T06:06:36;90540.16;;;5.51;64.48
72585;BME280;60618;40.084;32.908;2022-10-22T06:09:33;90537.56;;;5.63;64.56
72585;BME280;60618;40.084;32.908;2022-10-22T06:12:06;90533.91;;;5.90;63.31
72585;BME280;60618;40.084;32.908;2022-10-22T06:14:33;90545.66;;;5.73;63.42
72585;BME280;60618;40.084;32.908;2022-10-22T06:16:59;90542.66;;;6.03;63.13
72585;BME280;60618;40.084;32.908;2022-10-22T06:19:26;90539.19;;;6.35;63.30
72585;BME280;60618;40.084;32.908;2022-10-22T06:21:53;90534.81;;;6.29;62.97
72585;BME280;60618;40.084;32.908;2022-10-22T06:24:20;90540.94;;;6.25;63.00
72585;BME280;60618;40.084;32.908;2022-10-22T06:26:50;90544.00;;;6.24;62.49
72585;BME280;60618;40.084;32.908;2022-10-22T06:29:17;90550.22;;;6.46;62.91
72585;BME280;60618;40.084;32.908;2022-10-22T06:31:44;90552.97;;;6.55;62.42
72585;BME280;60618;40.084;32.908;2022-10-22T06:34:12;90549.69;;;6.39;62.66
72585;BME280;60618;40.084;32.908;2022-10-22T06:36:40;90553.69;;;6.43;62.38
72585;BME280;60618;40.084;32.908;2022-10-22T06:39:10;90547.94;;;6.74;61.15
72585;BME280;60618;40.084;32.908;2022-10-22T06:41:38;90548.47;;;6.69;61.75
72585;BME280;60618;40.084;32.908;2022-10-22T06:44:05;90551.28;;;7.03;61.25
72585;BME280;60618;40.084;32.908;2022-10-22T06:46:31;90553.28;;;7.12;60.18
72585;BME280;60618;40.084;32.908;2022-10-22T06:49:00;90560.28;;;7.44;60.29
72585;BME280;60618;40.084;32.908;2022-10-22T06:51:28;90554.84;;;7.60;59.19
72585;BME280;60618;40.084;32.908;2022-10-22T06:53:56;90548.41;;;7.49;59.01
72585;BME280;60618;40.084;32.908;2022-10-22T06:56:25;90549.41;;;7.77;57.64
72585;BME280;60618;40.084;32.908;2022-10-22T06:58:54;90552.94;;;7.61;57.22
72585;BME280;60618;40.084;32.908;2022-10-22T07:01:24;90546.84;;;7.86;58.03
72585;BME280;60618;40.084;32.908;2022-10-22T07:03:51;90559.16;;;7.80;57.55
72585;BME280;60618;40.084;32.908;2022-10-22T07:06:19;90555.69;;;7.70;58.03
72585;BME280;60618;40.084;32.908;2022-10-22T07:08:47;90548.47;;;7.71;57.51
72585;BME280;60618;40.084;32.908;2022-10-22T07:11:22;90548.78;;;7.73;56.54
72585;BME280;60618;40.084;32.908;2022-10-22T07:13:50;90543.97;;;7.93;55.93
72585;BME280;60618;40.084;32.908;2022-10-22T07:16:19;90543.41;;;8.33;55.88
72585;BME280;60618;40.084;32.908;2022-10-22T07:18:46;90546.38;;;8.35;54.48
72585;BME280;60618;40.084;32.908;2022-10-22T07:21:16;90535.59;;;8.16;55.35
72585;BME280;60618;40.084;32.908;2022-10-22T07:23:43;90533.91;;;8.22;54.65
72585;BME280;60618;40.084;32.908;2022-10-22T07:26:12;90530.63;;;8.18;54.14
72585;BME280;60618;40.084;32.908;2022-10-22T07:28:39;90535.66;;;8.60;53.67
72585;BME280;60618;40.084;32.908;2022-10-22T07:31:08;90530.03;;;9.11;52.92
72585;BME280;60618;40.084;32.908;2022-10-22T07:33:36;90541.59;;;8.64;52.50
72585;BME280;60618;40.084;32.908;2022-10-22T07:36:06;90532.91;;;8.29;52.86
72585;BME280;60618;40.084;32.908;2022-10-22T07:38:34;90535.06;;;8.56;52.98
72585;BME280;60618;40.084;32.908;2022-10-22T07:41:02;90530.19;;;8.86;49.30
72585;BME280;60618;40.084;32.908;2022-10-22T07:43:29;90529.94;;;8.93;49.78
72585;BME280;60618;40.084;32.908;2022-10-22T07:45:56;90531.63;;;9.39;49.94
72585;BME280;60618;40.084;32.908;2022-10-22T07:48:23;90532.84;;;9.57;48.57
72585;BME280;60618;40.084;32.908;2022-10-22T07:50:51;90531.44;;;9.34;48.20
72585;BME280;60618;40.084;32.908;2022-10-22T07:53:17;90533.13;;;9.50;47.87
72585;BME280;60618;40.084;32.908;2022-10-22T07:55:50;90532.72;;;9.60;46.73
72585;BME280;60618;40.084;32.908;2022-10-22T07:58:18;90526.22;;;9.61;45.75
72585;BME280;60618;40.084;32.908;2022-10-22T08:00:45;90532.38;;;10.08;44.33
72585;BME280;60618;40.084;32.908;2022-10-22T08:03:16;90524.69;;;10.10;45.43
72585;BME280;60618;40.084;32.908;2022-10-22T08:05:46;90547.19;;;10.36;45.24
72585;BME280;60618;40.084;32.908;2022-10-22T08:08:15;90538.03;;;9.60;47.56
72585;BME280;60618;40.084;32.908;2022-10-22T08:10:42;90535.84;;;9.77;48.37
72585;BME280;60618;40.084;32.908;2022-10-22T08:13:10;90541.69;;;9.45;50.04
72585;BME280;60618;40.084;32.908;2022-10-22T08:15:37;90530.56;;;8.97;49.85
72585;BME280;60618;40.084;32.908;2022-10-22T08:18:04;90530.84;;;8.90;50.59
72585;BME280;60618;40.084;32.908;2022-10-22T08:20:31;90527.63;;;9.35;50.17
72585;BME280;60618;40.084;32.908;2022-10-22T08:23:01;90522.44;;;9.31;49.77
72585;BME280;60618;40.084;32.908;2022-10-22T08:25:28;90521.84;;;9.27;50.77
72585;BME280;60618;40.084;32.908;2022-10-22T08:27:55;90524.94;;;9.26;49.65
72585;BME280;60618;40.084;32.908;2022-10-22T08:30:22;90526.09;;;9.74;50.85
72585;BME280;60618;40.084;32.908;2022-10-22T08:32:52;90520.84;;;10.20;49.33
72585;BME280;60618;40.084;32.908;2022-10-22T08:35:19;90522.06;;;10.37;47.30
72585;BME280;60618;40.084;32.908;2022-10-22T08:37:46;90516.44;;;10.35;48.41
72585;BME280;60618;40.084;32.908;2022-10-22T08:40:34;90519.09;;;10.54;48.07
72585;BME280;60618;40.084;32.908;2022-10-22T08:46:24;90506.19;;;10.15;48.22
72585;BME280;60618;40.084;32.908;2022-10-22T08:48:57;90517.00;;;10.30;48.85
72585;BME280;60618;40.084;32.908;2022-10-22T08:51:30;90513.78;;;10.26;48.86
72585;BME280;60618;40.084;32.908;2022-10-22T08:56:28;90503.38;;;10.65;47.76
72585;BME280;60618;40.084;32.908;2022-10-22T09:01:52;90505.06;;;11.04;47.61
72585;BME280;60618;40.084;32.908;2022-10-22T09:04:35;90495.44;;;11.07;46.89
72585;BME280;60618;40.084;32.908;2022-10-22T09:07:04;90500.88;;;10.52;47.07
72585;BME280;60618;40.084;32.908;2022-10-22T09:09:37;90491.81;;;10.68;46.54
72585;BME280;60618;40.084;32.908;2022-10-22T09:12:13;90484.44;;;11.47;46.60
72585;BME280;60618;40.084;32.908;2022-10-22T09:14:46;90487.06;;;11.56;45.13
72585;BME280;60618;40.084;32.908;2022-10-22T09:20:15;90476.56;;;11.53;45.28
72585;BME280;60618;40.084;32.908;2022-10-22T09:22:54;90474.56;;;11.05;46.01
72585;BME280;60618;40.084;32.908;2022-10-22T09:25:29;90469.13;;;11.33;47.02
72585;BME280;60618;40.084;32.908;2022-10-22T09:27:56;90471.13;;;11.95;44.57
72585;BME280;60618;40.084;32.908;2022-10-22T09:30:26;90476.56;;;11.77;44.29
72585;BME280;60618;40.084;32.908;2022-10-22T09:33:15;90484.00;;;11.82;44.16
72585;BME280;60618;40.084;32.908;2022-10-22T09:36:01;90468.44;;;11.47;44.73
72585;BME280;60618;40.084;32.908;2022-10-22T09:38:30;90476.13;;;11.54;45.13
72585;BME280;60618;40.084;32.908;2022-10-22T09:41:00;90476.63;;;11.68;44.93
72585;BME280;60618;40.084;32.908;2022-10-22T09:43:27;90471.47;;;11.31;44.54
72585;BME280;60618;40.084;32.908;2022-10-22T09:46:03;90467.16;;;11.66;43.97
72585;BME280;60618;40.084;32.908;2022-10-22T09:48:35;90458.50;;;11.48;43.92
72585;BME280;60618;40.084;32.908;2022-10-22T09:51:09;90460.50;;;11.38;43.98
72585;BME280;60618;40.084;32.908;2022-10-22T09:53:42;90461.25;;;11.62;43.72
72585;BME280;60618;40.084;32.908;2022-10-22T09:56:20;90451.97;;;12.20;42.59
72585;BME280;60618;40.084;32.908;2022-10-22T09:58:49;90454.75;;;11.87;43.77
72585;BME280;60618;40.084;32.908;2022-10-22T10:01:21;90456.44;;;12.53;44.31
72585;BME280;60618;40.084;32.908;2022-10-22T10:03:48;90446.19;;;13.40;42.76
72585;BME280;60618;40.084;32.908;2022-10-22T10:06:20;90439.19;;;13.63;40.28
72585;BME280;60618;40.084;32.908;2022-10-22T10:08:48;90432.81;;;13.25;40.90
72585;BME280;60618;40.084;32.908;2022-10-22T10:12:12;90434.78;;;13.60;40.58
72585;BME280;60618;40.084;32.908;2022-10-22T10:16:59;90421.69;;;13.47;39.74
72585;BME280;60618;40.084;32.908;2022-10-22T10:19:51;90427.88;;;12.44;40.23
72585;BME280;60618;40.084;32.908;2022-10-22T10:27:55;90414.19;;;13.31;39.61
72585;BME280;60618;40.084;32.908;2022-10-22T10:30:25;90419.59;;;12.72;39.66
72585;BME280;60618;40.084;32.908;2022-10-22T10:36:11;90414.72;;;12.41;40.07
72585;BME280;60618;40.084;32.908;2022-10-22T10:38:21;90408.72;;;12.46;40.25
72585;BME280;60618;40.084;32.908;2022-10-22T10:40:58;90401.91;;;12.45;40.34
72585;BME280;60618;40.084;32.908;2022-10-22T10:49:07;90390.47;;;12.59;39.37
72585;BME280;60618;40.084;32.908;2022-10-22T10:52:10;90381.69;;;12.73;39.69
72585;BME280;60618;40.084;32.908;2022-10-22T11:00:15;90372.25;;;12.93;37.60
72585;BME280;60618;40.084;32.908;2022-10-22T11:08:39;90370.50;;;14.27;38.56
72585;BME280;60618;40.084;32.908;2022-10-22T11:11:16;90366.06;;;15.01;36.64
72585;BME280;60618;40.084;32.908;2022-10-22T11:16:51;90368.34;;;14.05;35.00
72585;BME280;60618;40.084;32.908;2022-10-22T11:22:34;90358.00;;;14.44;35.83
72585;BME280;60618;40.084;32.908;2022-10-22T11:25:14;90357.50;;;13.12;37.65
72585;BME280;60618;40.084;32.908;2022-10-22T11:27:53;90359.31;;;12.71;38.40
72585;BME280;60618;40.084;32.908;2022-10-22T11:30:34;90354.72;;;12.71;39.11
72585;BME280;60618;40.084;32.908;2022-10-22T11:33:18;90347.16;;;12.70;39.15
72585;BME280;60618;40.084;32.908;2022-10-22T11:35:47;90351.31;;;12.56;39.06
72585;BME280;60618;40.084;32.908;2022-10-22T11:38:24;90348.75;;;12.97;39.84
72585;BME280;60618;40.084;32.908;2022-10-22T11:40:55;90345.03;;;13.64;36.90
72585;BME280;60618;40.084;32.908;2022-10-22T11:46:07;90345.50;;;13.43;36.33
72585;BME280;60618;40.084;32.908;2022-10-22T11:48:38;90346.13;;;13.17;36.38
72585;BME280;60618;40.084;32.908;2022-10-22T11:51:32;90336.28;;;13.08;36.34
72585;BME280;60618;40.084;32.908;2022-10-22T11:54:30;90340.75;;;13.17;35.66
72585;BME280;60618;40.084;32.908;2022-10-22T11:57:19;90337.34;;;13.52;35.94
72585;BME280;60618;40.084;32.908;2022-10-22T12:02:42;90321.75;;;13.50;36.48
72585;BME280;60618;40.084;32.908;2022-10-22T12:05:35;90323.16;;;13.46;35.72
72585;BME280;60618;40.084;32.908;2022-10-22T12:10:54;90322.50;;;13.16;35.32
72585;BME280;60618;40.084;32.908;2022-10-22T12:13:30;90318.03;;;13.07;35.83
72585;BME280;60618;40.084;32.908;2022-10-22T12:16:01;90320.47;;;13.25;35.56
72585;BME280;60618;40.084;32.908;2022-10-22T12:18:43;90308.31;;;13.24;35.83
72585;BME280;60618;40.084;32.908;2022-10-22T12:21:12;90304.16;;;13.23;35.87
72585;BME280;60618;40.084;32.908;2022-10-22T12:23:40;90308.50;;;13.21;35.53
72585;BME280;60618;40.084;32.908;2022-10-22T12:26:25;90300.66;;;13.38;34.94
72585;BME280;60618;40.084;32.908;2022-10-22T12:28:59;90312.16;;;13.84;34.94
72585;BME280;60618;40.084;32.908;2022-10-22T12:31:34;90308.00;;;14.09;33.43
72585;BME280;60618;40.084;32.908;2022-10-22T12:34:02;90297.69;;;14.28;33.08
72585;BME280;60618;40.084;32.908;2022-10-22T12:36:30;90301.13;;;13.56;32.51
72585;BME280;60618;40.084;32.908;2022-10-22T12:38:59;90301.22;;;13.88;33.72
72585;BME280;60618;40.084;32.908;2022-10-22T12:41:35;90295.72;;;14.23;34.28
72585;BME280;60618;40.084;32.908;2022-10-22T12:44:03;90293.41;;;13.84;34.67
72585;BME280;60618;40.084;32.908;2022-10-22T12:46:32;90292.97;;;13.45;34.60
72585;BME280;60618;40.084;32.908;2022-10-22T12:49:02;90296.53;;;12.81;35.41
72585;BME280;60618;40.084;32.908;2022-10-22T12:51:30;90297.50;;;12.98;35.58
72585;BME280;60618;40.084;32.908;2022-10-22T12:54:07;90305.28;;;12.82;35.68
72585;BME280;60618;40.084;32.908;2022-10-22T12:56:37;90302.13;;;12.83;34.86
72585;BME280;60618;40.084;32.908;2022-10-22T12:59:25;90301.84;;;13.16;34.30
72585;BME280;60618;40.084;32.908;2022-10-22T13:01:54;90302.44;;;13.41;33.68
72585;BME280;60618;40.084;32.908;2022-10-22T13:09:38;90293.97;;;13.48;35.09
72585;BME280;60618;40.084;32.908;2022-10-22T13:12:07;90299.91;;;13.78;34.93
72585;BME280;60618;40.084;32.908;2022-10-22T13:14:37;90298.22;;;13.80;35.12
72585;BME280;60618;40.084;32.908;2022-10-22T13:17:14;90294.94;;;13.24;36.00
72585;BME280;60618;40.084;32.908;2022-10-22T13:19:59;90295.19;;;13.26;36.30
72585;BME280;60618;40.084;32.908;2022-10-22T13:30:34;90291.38;;;12.77;36.03
72585;BME280;60618;40.084;32.908;2022-10-22T13:33:18;90296.44;;;12.75;35.69
72585;BME280;60618;40.084;32.908;2022-10-22T13:35:47;90289.47;;;12.63;36.60
72585;BME280;60618;40.084;32.908;2022-10-22T13:38:24;90293.66;;;12.49;37.16
72585;BME280;60618;40.084;32.908;2022-10-22T13:40:51;90296.28;;;12.64;35.76
72585;BME280;60618;40.084;32.908;2022-10-22T13:43:18;90285.97;;;12.57;35.65
72585;BME280;60618;40.084;32.908;2022-10-22T13:45:52;90290.06;;;12.53;35.90
72585;BME280;60618;40.084;32.908;2022-10-22T13:48:21;90293.19;;;12.51;36.35
72585;BME280;60618;40.084;32.908;2022-10-22T13:50:50;90297.44;;;12.43;35.95
72585;BME280;60618;40.084;32.908;2022-10-22T13:53:20;90294.41;;;12.35;36.07
72585;BME280;60618;40.084;32.908;2022-10-22T13:55:47;90291.72;;;12.50;35.76
72585;BME280;60618;40.084;32.908;2022-10-22T13:58:16;90290.16;;;12.43;36.02
72585;BME280;60618;40.084;32.908;2022-10-22T14:00:50;90293.94;;;12.37;35.42
72585;BME280;60618;40.084;32.908;2022-10-22T14:03:20;90293.28;;;12.42;36.26
72585;BME280;60618;40.084;32.908;2022-10-22T14:05:48;90295.41;;;12.53;36.45
72585;BME280;60618;40.084;32.908;2022-10-22T14:08:18;90294.09;;;12.48;36.05
72585;BME280;60618;40.084;32.908;2022-10-22T14:10:46;90283.81;;;12.41;35.97
72585;BME280;60618;40.084;32.908;2022-10-22T14:13:14;90284.06;;;12.43;35.99
72585;BME280;60618;40.084;32.908;2022-10-22T14:15:42;90291.88;;;12.61;35.65
72585;BME280;60618;40.084;32.908;2022-10-22T14:18:19;90290.44;;;12.45;35.34
72585;BME280;60618;40.084;32.908;2022-10-22T14:20:47;90280.50;;;12.31;35.31
72585;BME280;60618;40.084;32.908;2022-10-22T14:23:17;90291.00;;;12.35;36.42
72585;BME280;60618;40.084;32.908;2022-10-22T14:25:46;90292.25;;;12.39;36.75
72585;BME280;60618;40.084;32.908;2022-10-22T14:28:13;90288.59;;;12.22;34.56
72585;BME280;60618;40.084;32.908;2022-10-22T14:30:40;90277.94;;;12.07;34.70
72585;BME280;60618;40.084;32.908;2022-10-22T14:36:01;90280.44;;;11.96;33.76
72585;BME280;60618;40.084;32.908;2022-10-22T14:38:28;90283.66;;;12.00;34.35
72585;BME280;60618;40.084;32.908;2022-10-22T14:40:56;90277.56;;;12.14;34.97
72585;BME280;60618;40.084;32.908;2022-10-22T14:43:28;90275.69;;;12.50;34.13
72585;BME280;60618;40.084;32.908;2022-10-22T14:45:56;90276.97;;;12.55;34.22
72585;BME280;60618;40.084;32.908;2022-10-22T14:48:23;90288.38;;;12.55;34.72
72585;BME280;60618;40.084;32.908;2022-10-22T14:50:50;90281.56;;;12.54;35.38
72585;BME280;60618;40.084;32.908;2022-10-22T14:53:18;90277.50;;;12.59;35.31